04W

Field of Dreams Airport

Hinckley, Minnesota, USA
METAR K04W 200055Z AUTO 02004KT 5SM -DZ SCT007 OVC023 12/12 A3007 RMK AO2 P0001
Observed Flight Rules
Sep-20 @ 00:55 UTC (21 minutes ago) Marginal Visual Flight Rules
Wind Visibility Clouds Conditions
20° at 4 knots 5 miles
  • Scattered at 700' AGL
  • Overcast at 2,300' AGL
  • Light Drizzle
Temperatures Readings Precipitation
Current 12°C / 54°F
Dewpoint 12°C / 54°F
Humidity 100%
Altimeter 30.07" Hg
Pressure 1018 hPa
Elevation 311
Current Rain 0.01
METAR K04W 200055Z AUTO 02004KT 5SM -DZ SCT007 OVC023 12/12 A3007 RMK AO2 P0001
Observed Flight Rules
Sep-20 @ 00:55 UTC
(21 minutes ago)
MVFR
Wind Visibility
20° at 4 knots 5 miles
Clouds
  • Scattered at 700' AGL
  • Overcast at 2,300' AGL
Conditions
  • Light Drizzle
Temperature Dewpoint
12°C / 54°F 12°C / 54°F
Humidity Altimeter Pressure
100% 30.07" Hg 1018 hPa
Current Rain
0.01